Cottbus-Drewitz Airport EDCD

Flugplatz Daten

Name: Cottbus-Drewitz Airport

Ident: EDCD

Lat: 51,88944244

Long: 14,53194427

Platzhöhe: 272 ft

IataCode: CBU

City: Cottbus

Metar

2018/03/31 12:00
MYGF 311200Z 00000KT 9000 FUBR FEW020 BKN250 19/17 A3010 VIS REDCD 2NM OVR RWY24

Taf

Gewünschte Webcam nicht vorhanden? Dann fügen Sie eine hinzu. Sie wird dann so schnell wie möglich freigeschaltet
Url: Title: